Time;durP1;ratioP1;P1;durP2;ratioP2;P2;SDS_P1;SDS_P2;PMS_P1;PMS_P2;Temp;Humidity;BMP_temperature;BMP_pressure;BME280_temperature;BME280_humidity;BME280_pressure;Samples;Min_cycle;Max_cycle;Signal;HPM_P1;HPM_P2
2022/05/06 00:00:16;;;;;;;21.08;11.70;;;;;;;12.07;100.00;100517.28;6230158;28;20122;-75
2022/05/06 00:03:17;;;;;;;16.80;11.20;;;;;;;12.13;100.00;100518.66;6247867;28;20045;-75
2022/05/06 00:06:18;;;;;;;16.70;11.30;;;;;;;12.14;100.00;100517.75;6230058;28;20069;-72
2022/05/06 00:09:19;;;;;;;20.92;11.93;;;;;;;12.08;100.00;100526.78;6230092;28;20120;-72
2022/05/06 00:12:20;;;;;;;19.70;11.90;;;;;;;12.08;100.00;100524.19;6229850;28;20049;-72
2022/05/06 00:15:21;;;;;;;25.23;12.18;;;;;;;12.00;100.00;100516.78;6230079;28;20125;-74
2022/05/06 00:18:22;;;;;;;20.02;11.90;;;;;;;12.00;100.00;100514.16;6230005;28;20065;-75
2022/05/06 00:21:23;;;;;;;21.50;12.07;;;;;;;11.92;100.00;100511.16;6246369;28;20386;-74
2022/05/06 00:24:24;;;;;;;19.83;12.10;;;;;;;11.87;100.00;100502.75;6246363;28;20044;-74
2022/05/06 00:27:24;;;;;;;24.60;11.93;;;;;;;11.90;100.00;100502.56;6229842;28;20057;-75
2022/05/06 00:30:25;;;;;;;20.55;11.05;;;;;;;11.92;100.00;100499.88;6246479;28;20478;-75
2022/05/06 00:33:27;;;;;;;23.88;11.55;;;;;;;11.89;100.00;100500.91;6245520;28;20058;-72
2022/05/06 00:36:28;;;;;;;17.48;11.00;;;;;;;11.82;100.00;100496.91;6247396;28;20458;-72
2022/05/06 00:39:28;;;;;;;16.80;10.85;;;;;;;11.80;100.00;100498.81;6229528;28;20048;-72
2022/05/06 00:42:29;;;;;;;20.73;11.05;;;;;;;11.86;100.00;100499.28;6229688;28;20049;-75
2022/05/06 00:45:42;;;;;;;24.27;11.18;;;;;;;11.75;100.00;100487.78;6246226;28;20046;-75
2022/05/06 00:48:47;;;;;;;15.77;10.48;;;;;;;11.79;100.00;100491.88;6247256;28;20038;-75
2022/05/06 00:51:51;;;;;;;15.27;10.77;;;;;;;11.72;100.00;100491.41;6252286;28;20052;-75
2022/05/06 00:54:52;;;;;;;18.40;10.27;;;;;;;11.73;100.00;100503.53;6250396;28;20096;-75
2022/05/06 00:57:53;;;;;;;16.60;11.00;;;;;;;11.72;100.00;100511.50;6250389;28;20107;-72
2022/05/06 01:00:54;;;;;;;22.83;11.43;;;;;;;11.66;100.00;100504.84;6217775;28;20736;-72
2022/05/06 01:03:56;;;;;;;20.95;12.02;;;;;;;11.54;100.00;100511.63;6250451;28;20053;-72
2022/05/06 01:06:57;;;;;;;19.77;11.13;;;;;;;11.54;100.00;100511.63;6217885;28;20112;-72
2022/05/06 01:09:57;;;;;;;20.15;12.02;;;;;;;11.57;100.00;100508.84;6233992;28;20084;-72
2022/05/06 01:12:58;;;;;;;16.48;11.15;;;;;;;11.56;100.00;100512.38;6250200;28;20055;-73
2022/05/06 01:15:59;;;;;;;19.67;12.68;;;;;;;11.52;100.00;100505.63;6250172;28;20111;-72
2022/05/06 01:19:00;;;;;;;18.75;11.88;;;;;;;11.56;100.00;100517.59;6233837;28;20048;-72
2022/05/06 01:22:01;;;;;;;20.10;12.63;;;;;;;11.45;100.00;100513.00;6250121;28;20184;-72
2022/05/06 01:25:02;;;;;;;19.90;11.65;;;;;;;11.38;100.00;100522.09;6250066;28;20505;-71
2022/05/06 01:28:05;;;;;;;19.77;12.05;;;;;;;11.33;100.00;100521.53;6251158;28;20049;-72
2022/05/06 01:31:07;;;;;;;19.35;11.50;;;;;;;11.33;100.00;100518.91;6251038;28;20432;-72
2022/05/06 01:34:16;;;;;;;20.65;11.93;;;;;;;11.29;100.00;100520.84;6234752;28;20045;-72
2022/05/06 01:37:21;;;;;;;21.27;11.63;;;;;;;11.21;100.00;100517.84;6233591;28;20068;-72
2022/05/06 01:40:24;;;;;;;19.77;12.05;;;;;;;11.25;100.00;100516.72;6250530;28;20059;-76
2022/05/06 01:43:27;;;;;;;21.55;13.23;;;;;;;11.26;100.00;100514.97;6249162;28;20067;-75
2022/05/06 01:46:29;;;;;;;22.23;12.18;;;;;;;11.25;100.00;100514.13;6232751;28;20527;-71
2022/05/06 01:49:31;;;;;;;25.67;12.57;;;;;;;11.22;100.00;100519.53;6232485;28;20057;-72
2022/05/06 01:52:35;;;;;;;20.20;12.38;;;;;;;11.21;100.00;100519.63;6249039;28;20034;-72
2022/05/06 01:55:36;;;;;;;19.63;12.43;;;;;;;11.16;100.00;100521.63;6249740;28;20103;-72
2022/05/06 01:58:37;;;;;;;19.13;12.52;;;;;;;11.13;100.00;100525.25;6249845;28;20405;-72
2022/05/06 02:01:38;;;;;;;19.50;12.17;;;;;;;11.09;100.00;100521.97;6249083;28;20128;-72
2022/05/06 02:07:59;;;;;;;24.70;11.15;;;;;;;10.96;100.00;100518.38;6250629;28;20128;-75
2022/05/06 02:11:01;;;;;;;19.00;12.15;;;;;;;10.95;100.00;100518.44;6248461;28;20063;-75
2022/05/06 02:14:03;;;;;;;18.88;11.90;;;;;;;10.95;100.00;100510.59;6248428;28;20400;-75
2022/05/06 02:17:04;;;;;;;17.90;11.68;;;;;;;10.93;100.00;100517.69;6249387;28;20499;-74
2022/05/06 02:20:07;;;;;;;17.80;11.48;;;;;;;10.88;100.00;100516.16;6248126;28;20041;-75
2022/05/06 02:23:08;;;;;;;19.00;11.88;;;;;;;10.87;100.00;100519.72;6248201;28;20037;-75
2022/05/06 02:26:09;;;;;;;20.02;12.23;;;;;;;10.87;100.00;100514.50;6249211;28;20056;-75
2022/05/06 02:29:10;;;;;;;18.50;10.57;;;;;;;10.84;100.00;100519.03;6248140;28;20143;-72
2022/05/06 02:35:30;;;;;;;15.73;10.40;;;;;;;10.68;100.00;100519.84;6249058;28;20041;-72
2022/05/06 02:38:31;;;;;;;17.58;11.32;;;;;;;10.66;100.00;100526.09;6231015;28;20075;-72
2022/05/06 02:41:32;;;;;;;14.98;10.93;;;;;;;10.67;100.00;100517.34;6248692;28;20528;-72
2022/05/06 02:44:34;;;;;;;12.68;10.07;;;;;;;10.63;100.00;100514.06;6248079;28;20053;-72
2022/05/06 02:47:35;;;;;;;13.05;10.40;;;;;;;10.63;100.00;100521.06;6231789;28;20456;-72
2022/05/06 02:50:36;;;;;;;15.30;10.35;;;;;;;10.65;100.00;100524.41;6231707;28;20111;-72
2022/05/06 02:53:37;;;;;;;13.02;10.40;;;;;;;10.64;100.00;100525.31;6247957;28;20053;-72
2022/05/06 02:56:38;;;;;;;13.95;10.45;;;;;;;10.58;100.00;100520.44;6249156;28;20056;-72
2022/05/06 02:59:39;;;;;;;16.30;10.60;;;;;;;10.56;100.00;100533.56;6247681;28;20057;-72
2022/05/06 03:02:40;;;;;;;14.40;10.75;;;;;;;10.55;100.00;100544.09;6248024;28;20068;-72
2022/05/06 03:05:41;;;;;;;14.32;10.25;;;;;;;10.54;100.00;100535.41;6248976;28;20037;-72
2022/05/06 03:08:42;;;;;;;20.75;10.95;;;;;;;10.52;100.00;100537.25;6248649;28;20052;-72
2022/05/06 03:11:42;;;;;;;17.10;10.55;;;;;;;10.51;100.00;100535.59;6246799;28;20049;-72
2022/05/06 03:14:44;;;;;;;14.45;10.80;;;;;;;10.57;100.00;100535.25;6248530;28;20057;-71
2022/05/06 03:17:45;;;;;;;12.70;10.10;;;;;;;10.53;100.00;100551.16;6231373;28;20084;-75
2022/05/06 03:20:45;;;;;;;16.63;11.18;;;;;;;10.44;100.00;100552.50;6248720;28;20049;-75
2022/05/06 03:23:50;;;;;;;14.02;10.88;;;;;;;10.38;100.00;100558.88;6231402;28;20076;-75
2022/05/06 03:26:51;;;;;;;15.18;10.90;;;;;;;10.35;100.00;100559.00;6247366;28;20391;-75
2022/05/06 03:29:52;;;;;;;18.20;11.15;;;;;;;10.35;100.00;100560.78;6231253;28;20049;-75
2022/05/06 03:32:56;;;;;;;14.95;10.75;;;;;;;10.42;100.00;100559.56;6248629;28;20049;-75
2022/05/06 03:35:56;;;;;;;16.42;11.32;;;;;;;10.44;100.00;100563.78;6247089;28;20045;-75
2022/05/06 03:38:57;;;;;;;16.48;11.13;;;;;;;10.50;100.00;100570.44;6214745;28;20594;-75
2022/05/06 03:41:58;;;;;;;18.40;12.20;;;;;;;10.45;100.00;100575.03;6246903;28;20053;-71
2022/05/06 03:44:59;;;;;;;17.02;12.25;;;;;;;10.53;100.00;100585.09;6248104;28;20464;-71
2022/05/06 03:48:00;;;;;;;18.88;12.05;;;;;;;10.71;100.00;100585.88;6246866;28;20411;-72
2022/05/06 03:54:21;;;;;;;19.05;12.32;;;;;;;10.91;100.00;100579.59;6247167;28;20114;-72
2022/05/06 03:57:22;;;;;;;23.13;12.00;;;;;;;11.01;100.00;100584.22;6230083;28;20045;-71
2022/05/06 04:00:22;;;;;;;23.85;12.23;;;;;;;10.99;100.00;100572.19;6245846;28;20108;-72
2022/05/06 04:03:23;;;;;;;19.58;12.80;;;;;;;11.08;100.00;100576.91;6229462;28;20053;-72
2022/05/06 04:06:24;;;;;;;20.92;12.45;;;;;;;11.20;100.00;100578.84;6245933;28;20037;-72
2022/05/06 04:09:26;;;;;;;17.63;11.07;;;;;;;11.25;100.00;100578.59;6245920;28;20065;-73
2022/05/06 04:12:26;;;;;;;16.52;12.13;;;;;;;11.38;100.00;100583.97;6229606;28;20049;-72
2022/05/06 04:15:27;;;;;;;16.13;12.02;;;;;;;11.43;100.00;100587.19;6246621;28;20095;-72
2022/05/06 04:18:28;;;;;;;19.50;11.10;;;;;;;11.48;100.00;100583.34;6229512;28;20117;-72
2022/05/06 04:24:49;;;;;;;20.73;11.25;;;;;;;11.63;100.00;100588.66;6231995;28;20136;-72
2022/05/06 04:27:50;;;;;;;15.32;11.07;;;;;;;11.76;100.00;100594.03;6229817;28;20699;-72
2022/05/06 04:30:51;;;;;;;17.73;11.63;;;;;;;11.89;100.00;100597.66;6246073;28;20045;-72
2022/05/06 04:33:52;;;;;;;15.25;11.20;;;;;;;11.99;100.00;100596.19;6229650;28;20282;-72
2022/05/06 04:36:53;;;;;;;15.20;10.80;;;;;;;12.10;100.00;100600.78;6213245;28;20088;-72
2022/05/06 04:39:54;;;;;;;15.55;10.55;;;;;;;12.16;100.00;100597.81;6245651;28;20065;-72
2022/05/06 04:42:55;;;;;;;19.83;11.93;;;;;;;12.28;100.00;100593.63;6245999;28;20049;-72
2022/05/06 04:45:56;;;;;;;16.30;11.18;;;;;;;12.38;100.00;100597.38;6245748;28;20061;-72
2022/05/06 04:48:57;;;;;;;15.23;11.30;;;;;;;12.47;100.00;100598.59;6245737;28;20053;-72
2022/05/06 04:51:58;;;;;;;16.77;10.93;;;;;;;12.54;100.00;100591.22;6229213;28;20085;-72
2022/05/06 04:54:58;;;;;;;16.50;10.57;;;;;;;12.65;100.00;100605.34;6245892;28;20408;-72
2022/05/06 04:57:59;;;;;;;16.85;10.82;;;;;;;12.73;100.00;100604.06;6245407;28;20052;-72
2022/05/06 05:01:00;;;;;;;17.23;10.13;;;;;;;12.82;100.00;100609.53;6246471;28;20139;-72
2022/05/06 05:04:01;;;;;;;14.68;9.93;;;;;;;12.93;100.00;100603.66;6229072;28;20053;-72
2022/05/06 05:07:02;;;;;;;13.90;9.75;;;;;;;13.02;100.00;100610.09;6245756;28;20049;-73
2022/05/06 05:10:04;;;;;;;19.45;10.88;;;;;;;13.11;100.00;100609.50;6212923;28;20451;-72
2022/05/06 05:13:05;;;;;;;17.95;12.00;;;;;;;13.13;100.00;100594.53;6246728;28;20060;-72
2022/05/06 05:16:06;;;;;;;16.40;11.38;;;;;;;13.26;100.00;100611.19;6229121;28;20053;-72
2022/05/06 05:19:07;;;;;;;18.00;11.10;;;;;;;13.33;100.00;100614.28;6228896;28;20046;-72
2022/05/06 05:22:08;;;;;;;20.52;11.27;;;;;;;13.43;98.75;100612.75;6245561;28;20486;-72
2022/05/06 05:25:10;;;;;;;16.90;11.25;;;;;;;13.56;97.62;100618.03;6212667;28;20479;-72
2022/05/06 05:28:11;;;;;;;21.23;12.15;;;;;;;13.69;99.11;100613.69;6245599;28;20053;-72
2022/05/06 05:31:12;;;;;;;27.58;13.57;;;;;;;13.81;100.00;100621.69;6245408;28;20521;-72
2022/05/06 05:34:13;;;;;;;20.23;12.35;;;;;;;13.88;94.69;100617.75;6226972;28;20076;-72
2022/05/06 05:37:14;;;;;;;20.88;12.02;;;;;;;13.96;96.36;100618.06;6260960;28;20092;-72
2022/05/06 05:40:14;;;;;;;14.82;10.65;;;;;;;14.13;98.24;100616.94;6207860;28;20054;-72
2022/05/06 05:49:54;;;;;;;19.38;10.70;;;;;;;14.44;96.33;100622.75;6243080;28;20532;-72
2022/05/06 05:52:55;;;;;;;15.85;10.15;;;;;;;14.54;97.26;100625.56;6207828;28;20042;-72
2022/05/06 05:55:55;;;;;;;15.85;9.88;;;;;;;14.62;93.79;100628.53;6207896;28;20089;-72
2022/05/06 05:58:56;;;;;;;15.38;10.05;;;;;;;14.70;93.61;100629.72;6223966;28;20038;-72
2022/05/06 06:02:00;;;;;;;15.15;9.00;;;;;;;14.80;93.12;100632.53;6224036;28;20085;-73
2022/05/06 06:05:01;;;;;;;14.73;9.43;;;;;;;14.87;95.80;100627.69;6225019;28;20049;-73
2022/05/06 06:08:02;;;;;;;18.02;10.55;;;;;;;14.96;98.21;100626.22;6207457;28;20088;-72
2022/05/06 06:11:04;;;;;;;17.53;9.63;;;;;;;15.06;90.87;100630.72;6191341;28;20053;-73
2022/05/06 06:14:05;;;;;;;14.30;9.90;;;;;;;15.13;91.41;100628.47;6201265;28;20046;-72
2022/05/06 06:17:06;;;;;;;18.63;10.43;;;;;;;15.26;92.37;100638.97;6239880;28;20092;-73
2022/05/06 06:20:07;;;;;;;16.05;9.75;;;;;;;15.37;92.96;100627.69;6233242;28;20045;-72
2022/05/06 06:23:08;;;;;;;14.18;9.32;;;;;;;15.46;88.17;100633.13;6243099;28;20053;-73
2022/05/06 06:26:09;;;;;;;17.08;9.57;;;;;;;15.57;92.15;100624.47;6232457;28;20042;-73
2022/05/06 06:29:10;;;;;;;16.63;10.30;;;;;;;15.75;93.29;100629.34;6231942;28;20537;-72
2022/05/06 06:32:12;;;;;;;14.38;9.45;;;;;;;15.88;90.31;100617.81;6211026;28;20067;-72
2022/05/06 06:35:13;;;;;;;22.92;11.20;;;;;;;16.00;96.01;100621.31;6248136;28;20072;-74
2022/05/06 06:38:14;;;;;;;15.55;9.10;;;;;;;16.10;92.55;100621.44;6229354;28;20538;-73
2022/05/06 06:41:15;;;;;;;20.25;10.00;;;;;;;16.19;90.32;100631.31;6206483;28;20057;-73
2022/05/06 06:44:17;;;;;;;14.70;8.75;;;;;;;16.28;91.19;100624.50;6255807;28;20050;-73
2022/05/06 06:47:18;;;;;;;14.48;8.70;;;;;;;16.38;89.34;100632.53;6182398;28;20052;-73
2022/05/06 06:50:19;;;;;;;22.80;9.23;;;;;;;16.52;84.95;100637.59;6222061;28;20041;-73
2022/05/06 06:53:20;;;;;;;15.13;9.10;;;;;;;16.61;86.66;100631.59;6230866;28;20450;-73
2022/05/06 06:56:22;;;;;;;23.27;9.15;;;;;;;16.74;85.69;100636.78;6247203;28;20059;-73
2022/05/06 06:59:23;;;;;;;17.83;8.82;;;;;;;16.89;82.84;100632.97;6263500;28;20053;-73
2022/05/06 07:02:23;;;;;;;17.27;8.57;;;;;;;17.08;88.10;100629.72;6247158;28;20041;-72
2022/05/06 07:05:24;;;;;;;14.10;8.27;;;;;;;17.21;83.62;100626.09;6246981;28;20076;-74
2022/05/06 07:11:55;;;;;;;15.90;7.88;;;;;;;17.35;76.54;100630.28;6247941;28;20180;-73
2022/05/06 07:14:56;;;;;;;26.85;8.15;;;;;;;17.56;78.43;100632.97;6231821;28;20048;-73
2022/05/06 07:17:56;;;;;;;19.83;9.05;;;;;;;17.64;80.44;100635.84;6263099;28;20069;-73
2022/05/06 07:20:57;;;;;;;18.83;8.13;;;;;;;17.77;76.70;100631.25;6246583;28;20048;-73
2022/05/06 07:23:58;;;;;;;18.95;7.28;;;;;;;18.03;77.81;100630.91;6223693;28;20120;-72
2022/05/06 07:27:00;;;;;;;15.30;7.50;;;;;;;18.23;77.83;100639.81;6213682;28;20064;-73
2022/05/06 07:30:02;;;;;;;15.50;7.20;;;;;;;18.30;78.30;100630.38;6227786;28;20049;-73
2022/05/06 07:33:04;;;;;;;15.50;7.50;;;;;;;18.49;75.82;100638.44;6222957;28;20042;-73
2022/05/06 07:36:05;;;;;;;8.95;6.53;;;;;;;18.64;73.47;100635.47;6205572;28;20072;-73
2022/05/06 07:39:06;;;;;;;11.53;6.60;;;;;;;18.68;74.36;100634.22;6222768;28;20042;-72
2022/05/06 07:42:08;;;;;;;12.27;6.50;;;;;;;18.76;71.48;100639.69;6188971;28;20096;-73
2022/05/06 07:45:11;;;;;;;;;;;;;;;19.08;70.63;100638.72;6189872;28;20041;-73
2022/05/06 07:48:13;;;;;;;13.98;6.10;;;;;;;19.31;69.96;100632.25;6221556;28;19928;-73
2022/05/06 07:51:14;;;;;;;10.18;5.65;;;;;;;19.44;69.56;100626.72;6221223;28;20084;-73
2022/05/06 07:54:15;;;;;;;10.90;5.50;;;;;;;19.60;68.38;100625.31;6221504;28;20057;-73
2022/05/06 07:57:17;;;;;;;11.20;6.03;;;;;;;19.73;66.45;100632.06;6189077;28;20141;-74
2022/05/06 08:00:23;;;;;;;9.52;5.00;;;;;;;19.64;61.38;100629.34;6237269;28;20422;-72
2022/05/06 08:06:43;;;;;;;7.68;4.78;;;;;;;19.99;61.92;100630.66;6221174;28;20461;-73
2022/05/06 08:09:44;;;;;;;5.37;4.13;;;;;;;20.18;61.63;100635.09;6222696;28;20048;-74
2022/05/06 08:12:44;;;;;;;10.27;4.53;;;;;;;20.35;58.70;100633.53;6221156;28;20042;-73
2022/05/06 08:15:46;;;;;;;8.00;4.40;;;;;;;20.62;57.21;100643.41;6204721;28;20054;-73
2022/05/06 08:18:46;;;;;;;7.77;3.90;;;;;;;20.68;55.09;100640.16;6220830;28;20137;-73
2022/05/06 08:21:48;;;;;;;7.75;4.18;;;;;;;20.77;55.50;100644.59;6204750;28;20048;-73
2022/05/06 08:24:49;;;;;;;10.77;4.10;;;;;;;20.93;53.89;100641.31;6224489;28;20037;-73
2022/05/06 08:27:51;;;;;;;7.15;3.80;;;;;;;21.04;50.91;100638.47;6250005;28;20377;-75
2022/05/06 08:30:52;;;;;;;7.10;4.25;;;;;;;21.10;52.77;100639.69;6224549;28;20043;-75
2022/05/06 08:33:56;;;;;;;7.28;3.45;;;;;;;21.17;49.00;100646.09;6204671;28;20046;-76
2022/05/06 08:36:57;;;;;;;6.83;3.40;;;;;;;21.26;48.69;100650.50;6221046;28;20042;-76
2022/05/06 08:39:57;;;;;;;4.72;3.13;;;;;;;21.31;48.98;100645.59;6231180;28;20053;-76
2022/05/06 08:42:58;;;;;;;6.23;3.63;;;;;;;21.46;50.97;100647.78;6228919;28;20065;-76
2022/05/06 08:52:43;;;;;;;6.13;3.35;;;;;;;21.71;45.13;100639.06;6246419;28;20100;-76
2022/05/06 08:55:44;;;;;;;7.55;3.33;;;;;;;21.56;43.10;100637.06;6246393;28;20049;-76
2022/05/06 08:58:45;;;;;;;10.00;3.30;;;;;;;21.40;44.96;100649.19;6246262;28;20057;-73
2022/05/06 09:01:46;;;;;;;3.30;2.90;;;;;;;21.56;49.05;100648.56;6246155;28;20041;-73
2022/05/06 09:04:47;;;;;;;8.38;3.05;;;;;;;21.70;48.45;100634.75;6246163;28;20517;-73
2022/05/06 09:07:55;;;;;;;6.30;3.30;;;;;;;21.94;47.15;100636.75;6244903;28;20049;-74
2022/05/06 09:11:04;;;;;;;5.28;3.10;;;;;;;21.98;44.93;100637.28;6246350;28;20049;-73
2022/05/06 09:14:04;;;;;;;8.52;3.10;;;;;;;22.05;42.85;100643.69;6249694;28;20490;-73
2022/05/06 09:17:22;;;;;;;6.03;3.55;;;;;;;22.24;45.63;100634.72;6247598;28;20136;-73
2022/05/06 09:20:25;;;;;;;6.68;3.00;;;;;;;22.26;45.10;100639.88;6231927;28;20092;-73
2022/05/06 09:23:26;;;;;;;4.53;2.92;;;;;;;21.75;46.84;100628.97;6224785;28;20078;-74
2022/05/06 09:26:27;;;;;;;7.72;3.65;;;;;;;22.03;47.56;100635.03;6212330;28;20096;-73
2022/05/06 09:29:34;;;;;;;6.97;3.80;;;;;;;22.20;47.92;100641.28;6232776;28;20056;-73
2022/05/06 09:32:36;;;;;;;7.68;3.22;;;;;;;22.31;48.46;100640.25;6249082;28;20053;-73
2022/05/06 09:35:37;;;;;;;5.93;3.50;;;;;;;22.44;45.65;100634.50;6250465;28;20048;-73
2022/05/06 09:38:38;;;;;;;3.87;3.23;;;;;;;22.59;45.37;100632.94;6282254;28;20049;-73
2022/05/06 09:41:40;;;;;;;8.00;3.70;;;;;;;22.70;47.54;100626.50;6232195;28;20320;-73
2022/05/06 09:44:47;;;;;;;6.30;3.65;;;;;;;22.68;45.57;100625.84;6225428;28;20410;-74
2022/05/06 09:47:57;;;;;;;7.80;3.80;;;;;;;22.52;44.99;100629.22;6237048;28;20091;-74
2022/05/06 09:51:00;;;;;;;8.07;3.67;;;;;;;22.49;46.76;100633.03;6238885;28;20033;-73
2022/05/06 09:54:03;;;;;;;7.93;3.72;;;;;;;22.40;43.92;100630.47;6244044;28;20057;-73
2022/05/06 10:04:58;;;;;;;7.57;3.40;;;;;;;22.69;46.80;100632.81;6226039;28;20078;-74
2022/05/06 10:08:04;;;;;;;5.63;3.60;;;;;;;23.00;43.44;100625.16;6248486;28;20447;-73
2022/05/06 10:11:12;;;;;;;6.68;3.20;;;;;;;23.36;41.36;100627.59;6235759;28;20479;-73
2022/05/06 10:14:14;;;;;;;5.95;3.47;;;;;;;23.23;41.72;100628.09;6223796;28;20053;-73
2022/05/06 10:17:50;;;;;;;8.80;3.70;;;;;;;23.45;43.24;100631.13;6223429;28;20049;-73
2022/05/06 10:20:52;;;;;;;6.55;3.42;;;;;;;23.20;42.07;100630.22;6224240;28;20042;-74
2022/05/06 10:23:56;;;;;;;6.43;3.42;;;;;;;22.91;42.72;100624.28;6223497;28;20132;-74
2022/05/06 10:26:57;;;;;;;5.63;3.65;;;;;;;23.25;44.98;100626.09;6209158;28;20049;-74
2022/05/06 10:33:18;;;;;;;8.85;4.03;;;;;;;23.69;46.81;100609.00;6248009;28;20064;-74
2022/05/06 10:36:45;;;;;;;9.20;3.22;;;;;;;23.85;42.03;100616.22;6268562;28;20053;-73
2022/05/06 10:39:46;;;;;;;9.43;3.40;;;;;;;23.96;42.97;100607.88;6227710;28;20501;-74
2022/05/06 10:42:47;;;;;;;6.20;3.55;;;;;;;23.89;41.36;100604.22;6222810;28;20107;-77
2022/05/06 10:45:48;;;;;;;7.88;3.80;;;;;;;24.16;40.99;100599.53;6223057;28;20426;-76
2022/05/06 10:48:51;;;;;;;6.70;3.30;;;;;;;24.26;39.88;100594.88;6222824;28;20056;-76
2022/05/06 10:51:52;;;;;;;6.57;3.13;;;;;;;24.25;40.28;100594.00;6206411;28;20521;-77
2022/05/06 10:54:55;;;;;;;9.10;3.40;;;;;;;24.20;41.87;100591.03;6223980;28;20070;-76
2022/05/06 10:57:59;;;;;;;9.05;3.17;;;;;;;24.36;43.07;100584.00;6239303;28;20045;-76
2022/05/06 11:01:00;;;;;;;12.25;3.55;;;;;;;24.47;40.92;100586.31;6255571;28;20058;-76
2022/05/06 11:04:01;;;;;;;8.90;4.00;;;;;;;24.43;41.57;100583.13;6222793;28;20045;-77
2022/05/06 11:07:13;;;;;;;5.65;3.40;;;;;;;24.41;39.46;100568.31;6222570;28;20417;-77
2022/05/06 11:10:19;;;;;;;5.88;3.50;;;;;;;24.13;42.64;100574.03;6206404;28;20104;-76
2022/05/06 11:13:23;;;;;;;7.90;3.83;;;;;;;23.96;39.25;100575.06;6255257;28;20084;-77
2022/05/06 11:16:24;;;;;;;7.57;3.50;;;;;;;23.73;40.59;100567.72;6213561;28;20144;-76
2022/05/06 11:19:34;;;;;;;7.77;3.10;;;;;;;24.06;42.72;100573.06;6233199;28;20046;-77
2022/05/06 11:22:36;;;;;;;11.18;3.40;;;;;;;24.55;44.02;100566.81;6207941;28;20064;-76
2022/05/06 11:25:47;;;;;;;4.70;3.30;;;;;;;25.20;39.49;100565.63;6220513;28;20073;-78
2022/05/06 11:29:02;;;;;;;11.05;3.35;;;;;;;25.75;41.37;100556.56;6205603;28;20129;-76
2022/05/06 11:32:03;;;;;;;6.78;3.30;;;;;;;25.71;39.61;100558.75;6238423;28;20417;-76
2022/05/06 11:35:10;;;;;;;6.35;3.17;;;;;;;25.54;40.81;100549.25;6221247;28;20124;-77
2022/05/06 11:38:11;;;;;;;7.22;3.47;;;;;;;25.61;39.79;100544.81;6223029;28;20049;-76
2022/05/06 11:41:14;;;;;;;4.30;3.22;;;;;;;25.25;35.83;100542.78;6221851;28;20054;-76
2022/05/06 11:47:27;;;;;;;6.07;3.35;;;;;;;25.01;37.62;100548.25;6254747;28;20045;-76
2022/05/06 11:47:46;;;;;;;6.13;3.22;;;;;;;24.56;36.69;100544.47;6265640;28;20051;-76
2022/05/06 11:50:50;;;;;;;4.72;3.28;;;;;;;24.64;38.05;100541.75;6213372;28;20049;-76
2022/05/06 11:53:53;;;;;;;9.55;3.10;;;;;;;24.68;38.59;100535.88;6246035;28;20049;-76
2022/05/06 11:56:54;;;;;;;5.70;3.40;;;;;;;24.93;39.30;100541.09;6229437;28;20049;-76
2022/05/06 11:59:56;;;;;;;8.10;3.38;;;;;;;24.73;37.17;100533.53;6232501;28;20058;-77
2022/05/06 12:03:02;;;;;;;10.60;3.70;;;;;;;24.82;40.42;100526.31;6227369;28;20485;-76
2022/05/06 12:06:08;;;;;;;9.52;3.20;;;;;;;24.59;38.58;100528.13;6246223;28;20041;-76
2022/05/06 12:09:21;;;;;;;6.47;3.55;;;;;;;24.86;40.14;100527.63;6245838;28;20041;-76
2022/05/06 12:12:22;;;;;;;4.97;3.30;;;;;;;25.03;36.83;100522.19;6245351;28;20053;-77
2022/05/06 12:15:34;;;;;;;7.35;3.20;;;;;;;24.70;39.71;100528.53;6229045;28;20093;-76
2022/05/06 12:18:37;;;;;;;4.70;3.03;;;;;;;25.01;42.00;100516.22;6246540;28;20045;-77
2022/05/06 12:21:37;;;;;;;5.97;3.30;;;;;;;24.87;39.42;100520.44;6246640;28;20037;-76
2022/05/06 12:24:47;;;;;;;5.50;3.30;;;;;;;24.93;38.71;100517.09;6261835;28;20049;-77
2022/05/06 12:28:09;;;;;;;4.47;3.20;;;;;;;24.85;39.92;100517.13;6246634;28;20049;-76
2022/05/06 12:31:10;;;;;;;4.55;3.30;;;;;;;24.81;39.88;100515.81;6245388;28;20057;-77
2022/05/06 12:34:11;;;;;;;10.57;3.53;;;;;;;24.94;39.84;100502.75;6245216;28;20464;-77
2022/05/06 12:37:14;;;;;;;5.20;3.50;;;;;;;24.84;37.55;100500.28;6261709;28;20878;-76
2022/05/06 12:40:17;;;;;;;5.80;3.42;;;;;;;24.90;39.06;100496.09;6246358;28;20049;-76
2022/05/06 12:43:26;;;;;;;6.53;3.20;;;;;;;24.88;37.87;100498.13;6246287;28;20049;-76
2022/05/06 12:46:30;;;;;;;4.88;3.30;;;;;;;25.04;40.44;100491.81;6218751;28;20445;-77
2022/05/06 12:49:40;;;;;;;7.38;3.50;;;;;;;25.00;39.60;100490.50;6233721;28;20091;-76
2022/05/06 12:52:42;;;;;;;7.22;3.45;;;;;;;24.64;39.79;100485.72;6212569;28;20064;-77
2022/05/06 12:55:44;;;;;;;;;;;;;;;24.46;36.38;100484.13;6264380;28;20080;-77
2022/05/06 12:58:45;;;;;;;7.45;3.30;;;;;;;24.31;37.73;100473.34;6217385;28;20007;-76
2022/05/06 13:01:45;;;;;;;9.13;3.55;;;;;;;24.28;36.99;100479.03;6251229;28;20045;-77
2022/05/06 13:04:47;;;;;;;7.40;3.10;;;;;;;24.45;38.67;100470.97;6229939;28;20056;-76
2022/05/06 13:07:48;;;;;;;4.53;3.15;;;;;;;24.47;35.97;100475.13;6249919;28;20397;-77
2022/05/06 13:10:49;;;;;;;3.83;2.85;;;;;;;24.76;34.24;100468.31;6241055;28;20045;-76
2022/05/06 13:13:50;;;;;;;6.18;3.35;;;;;;;24.89;34.84;100470.41;6249999;28;20042;-76
2022/05/06 13:16:52;;;;;;;6.50;3.30;;;;;;;24.95;35.22;100469.69;6266192;28;20048;-76
2022/05/06 13:19:53;;;;;;;6.22;2.80;;;;;;;24.88;36.13;100452.75;6233385;28;20401;-77
2022/05/06 13:22:54;;;;;;;4.97;2.80;;;;;;;25.05;37.51;100453.44;6250672;28;20065;-74
2022/05/06 13:25:54;;;;;;;3.83;3.17;;;;;;;25.15;37.21;100456.72;6250639;28;20117;-74
2022/05/06 13:28:55;;;;;;;4.23;2.97;;;;;;;25.07;38.89;100452.25;6249211;28;20402;-75
2022/05/06 13:31:56;;;;;;;9.02;3.42;;;;;;;25.06;38.33;100458.63;6229910;28;20287;-74
2022/05/06 13:34:57;;;;;;;5.63;3.10;;;;;;;25.16;39.33;100455.69;6232673;28;20061;-75
2022/05/06 13:37:58;;;;;;;5.80;3.35;;;;;;;25.21;36.65;100452.53;6250341;28;20044;-75
2022/05/06 13:40:59;;;;;;;6.93;2.80;;;;;;;24.90;34.66;100450.72;6248737;28;20058;-74
2022/05/06 13:44:00;;;;;;;5.15;2.95;;;;;;;25.03;35.92;100453.63;6248416;28;20050;-74
2022/05/06 13:47:00;;;;;;;5.40;2.77;;;;;;;24.88;34.40;100447.41;6257584;28;20056;-74
2022/05/06 13:50:01;;;;;;;7.70;3.25;;;;;;;24.27;34.73;100444.53;6208073;28;20279;-75
2022/05/06 13:53:02;;;;;;;4.60;3.08;;;;;;;24.48;36.04;100446.59;6279870;28;20915;-75
2022/05/06 13:59:23;;;;;;;5.40;2.97;;;;;;;24.96;35.96;100439.34;6248972;28;20047;-75
2022/05/06 14:02:24;;;;;;;6.43;3.13;;;;;;;24.76;37.09;100438.16;6208626;28;20418;-75
2022/05/06 14:05:26;;;;;;;6.97;3.25;;;;;;;24.81;37.58;100441.94;6223826;28;20060;-75
2022/05/06 14:08:26;;;;;;;12.00;2.97;;;;;;;24.67;36.44;100437.38;6240357;28;20046;-75
2022/05/06 14:11:30;;;;;;;3.72;2.90;;;;;;;24.57;38.26;100442.94;6207465;28;20053;-75
2022/05/06 14:14:31;;;;;;;3.85;3.15;;;;;;;24.49;35.90;100443.78;6212668;28;20121;-74
2022/05/06 14:17:31;;;;;;;4.40;2.80;;;;;;;24.54;36.80;100440.59;6248363;28;20053;-75
2022/05/06 14:20:32;;;;;;;5.43;3.42;;;;;;;24.65;35.96;100440.22;6233259;28;20834;-74
2022/05/06 14:23:33;;;;;;;6.63;3.15;;;;;;;24.67;37.49;100448.88;6223370;28;20099;-75
2022/05/06 14:26:34;;;;;;;4.22;2.92;;;;;;;24.68;36.55;100444.34;6223637;28;20050;-74
2022/05/06 14:29:35;;;;;;;5.25;3.08;;;;;;;24.69;35.11;100443.38;6207164;28;20462;-75
2022/05/06 14:32:36;;;;;;;9.70;2.95;;;;;;;24.53;33.98;100444.28;6233461;28;20053;-74
2022/05/06 14:35:37;;;;;;;9.15;3.08;;;;;;;24.66;36.38;100441.84;6264395;28;20049;-75
2022/05/06 14:38:38;;;;;;;6.65;3.20;;;;;;;24.59;35.33;100442.75;6247766;28;20041;-75
2022/05/06 14:41:39;;;;;;;6.82;3.45;;;;;;;24.64;34.49;100435.88;6248541;28;20064;-75